Terminal Aerodrome Forecast
Issued by NWS

Home | Current Version | Previous Version | Graphics & Text | Print | Product List | Glossary On
Versions: 1 2 3 4 5 6 7 8 9 10 11 12 13 14 15 16 17 18 19 20 21
000
FTUS43 KGRB 181700 RRA
TAFCWA
TAF
KCWA 181740Z 1818/1918 02003KT P6SM OVC014
      TEMPO 1821/1823 SCT015
     FM190000 VRB03KT P6SM OVC012
     FM191400 16004KT 6SM BR OVC015=

USA.gov is the U.S. government's official web portal to all federal, state and local government web resources and services.